sensor_id;sensor_type;location;lat;lon;timestamp;pressure;altitude;pressure_sealevel;temperature;humidity
9893;BME280;4985;49.092;8.542;2023-06-10T00:01:10;98920.19;;;25.39;41.54
9893;BME280;4985;49.092;8.542;2023-06-10T00:03:36;98921.28;;;25.38;41.54
9893;BME280;4985;49.092;8.542;2023-06-10T00:06:06;98918.59;;;25.38;41.56
9893;BME280;4985;49.092;8.542;2023-06-10T00:08:33;98921.28;;;25.38;41.56
9893;BME280;4985;49.092;8.542;2023-06-10T00:10:59;98924.78;;;25.39;41.58
9893;BME280;4985;49.092;8.542;2023-06-10T00:13:26;98918.59;;;25.38;41.57
9893;BME280;4985;49.092;8.542;2023-06-10T00:15:53;98917.50;;;25.39;41.56
9893;BME280;4985;49.092;8.542;2023-06-10T00:18:21;98912.41;;;25.38;41.58
9893;BME280;4985;49.092;8.542;2023-06-10T00:20:47;98911.59;;;25.37;41.57
9893;BME280;4985;49.092;8.542;2023-06-10T00:23:18;98916.97;;;25.37;41.60
9893;BME280;4985;49.092;8.542;2023-06-10T00:25:45;98920.72;;;25.36;41.59
9893;BME280;4985;49.092;8.542;2023-06-10T00:28:11;98923.41;;;25.36;41.59
9893;BME280;4985;49.092;8.542;2023-06-10T00:30:38;98915.31;;;25.36;41.60
9893;BME280;4985;49.092;8.542;2023-06-10T00:33:05;98908.06;;;25.32;41.60
9893;BME280;4985;49.092;8.542;2023-06-10T00:35:33;98921.53;;;25.37;41.62
9893;BME280;4985;49.092;8.542;2023-06-10T00:37:59;98923.41;;;25.36;41.61
9893;BME280;4985;49.092;8.542;2023-06-10T00:40:26;98916.41;;;25.35;41.60
9893;BME280;4985;49.092;8.542;2023-06-10T00:42:53;98923.69;;;25.35;41.63
9893;BME280;4985;49.092;8.542;2023-06-10T00:45:19;98927.19;;;25.35;41.65
9893;BME280;4985;49.092;8.542;2023-06-10T00:47:46;98926.37;;;25.35;41.66
9893;BME280;4985;49.092;8.542;2023-06-10T00:50:12;98930.97;;;25.34;41.67
9893;BME280;4985;49.092;8.542;2023-06-10T00:52:42;98922.06;;;25.34;41.69
9893;BME280;4985;49.092;8.542;2023-06-10T00:55:10;98925.56;;;25.34;41.70
9893;BME280;4985;49.092;8.542;2023-06-10T00:57:36;98921.25;;;25.33;41.70
9893;BME280;4985;49.092;8.542;2023-06-10T01:00:05;98915.62;;;25.30;41.71
9893;BME280;4985;49.092;8.542;2023-06-10T01:02:34;98929.34;;;25.33;41.73
9893;BME280;4985;49.092;8.542;2023-06-10T01:05:00;98925.84;;;25.33;41.74
9893;BME280;4985;49.092;8.542;2023-06-10T01:07:32;98925.03;;;25.32;41.74
9893;BME280;4985;49.092;8.542;2023-06-10T01:10:05;98925.84;;;25.33;41.77
9893;BME280;4985;49.092;8.542;2023-06-10T01:12:41;98917.22;;;25.31;41.77
9893;BME280;4985;49.092;8.542;2023-06-10T01:15:13;98923.44;;;25.31;41.77
9893;BME280;4985;49.092;8.542;2023-06-10T01:17:54;98924.50;;;25.30;41.80
9893;BME280;4985;49.092;8.542;2023-06-10T01:20:20;98922.62;;;25.31;41.82
9893;BME280;4985;49.092;8.542;2023-06-10T01:22:49;98926.37;;;25.30;41.82
9893;BME280;4985;49.092;8.542;2023-06-10T01:25:16;98929.09;;;25.30;41.84
9893;BME280;4985;49.092;8.542;2023-06-10T01:27:44;98920.19;;;25.29;41.85
9893;BME280;4985;49.092;8.542;2023-06-10T01:30:15;98919.37;;;25.29;41.85
9893;BME280;4985;49.092;8.542;2023-06-10T01:32:48;98926.66;;;25.28;41.86
9893;BME280;4985;49.092;8.542;2023-06-10T01:35:16;98919.91;;;25.25;41.87
9893;BME280;4985;49.092;8.542;2023-06-10T01:37:46;98923.97;;;25.28;41.90
9893;BME280;4985;49.092;8.542;2023-06-10T01:40:15;98917.78;;;25.28;41.90
9893;BME280;4985;49.092;8.542;2023-06-10T01:42:42;98929.34;;;25.28;41.91
9893;BME280;4985;49.092;8.542;2023-06-10T01:45:09;98924.25;;;25.27;41.91
9893;BME280;4985;49.092;8.542;2023-06-10T01:47:36;98927.75;;;25.27;41.92
9893;BME280;4985;49.092;8.542;2023-06-10T01:50:03;98927.75;;;25.27;41.94
9893;BME280;4985;49.092;8.542;2023-06-10T01:52:29;98923.44;;;25.26;41.94
9893;BME280;4985;49.092;8.542;2023-06-10T01:54:56;98933.13;;;25.27;41.96
9893;BME280;4985;49.092;8.542;2023-06-10T01:57:24;98923.44;;;25.26;41.95
9893;BME280;4985;49.092;8.542;2023-06-10T01:59:50;98928.81;;;25.26;41.94
9893;BME280;4985;49.092;8.542;2023-06-10T02:02:17;98926.94;;;25.27;41.96
9893;BME280;4985;49.092;8.542;2023-06-10T02:04:43;98930.44;;;25.27;41.96
9893;BME280;4985;49.092;8.542;2023-06-10T02:07:10;98926.13;;;25.26;41.97
9893;BME280;4985;49.092;8.542;2023-06-10T02:09:37;98932.56;;;25.25;41.98
9893;BME280;4985;49.092;8.542;2023-06-10T02:12:04;98929.06;;;25.24;41.98
9893;BME280;4985;49.092;8.542;2023-06-10T02:14:33;98933.63;;;25.24;42.01
9893;BME280;4985;49.092;8.542;2023-06-10T02:17:00;98939.03;;;25.24;42.03
9893;BME280;4985;49.092;8.542;2023-06-10T02:19:26;98938.22;;;25.23;42.04
9893;BME280;4985;49.092;8.542;2023-06-10T02:21:53;98942.81;;;25.23;42.06
9893;BME280;4985;49.092;8.542;2023-06-10T02:24:20;98942.81;;;25.23;42.07
9893;BME280;4985;49.092;8.542;2023-06-10T02:26:46;98948.47;;;25.21;42.08
9893;BME280;4985;49.092;8.542;2023-06-10T02:29:13;98944.97;;;25.21;42.09
9893;BME280;4985;49.092;8.542;2023-06-10T02:31:41;98940.91;;;25.18;42.09
9893;BME280;4985;49.092;8.542;2023-06-10T02:34:07;98950.34;;;25.21;42.10
9893;BME280;4985;49.092;8.542;2023-06-10T02:36:34;98958.16;;;25.22;42.11
9893;BME280;4985;49.092;8.542;2023-06-10T02:39:02;98961.12;;;25.21;42.11
9893;BME280;4985;49.092;8.542;2023-06-10T02:41:29;98954.13;;;25.20;42.10
9893;BME280;4985;49.092;8.542;2023-06-10T02:43:56;98959.50;;;25.20;42.11
9893;BME280;4985;49.092;8.542;2023-06-10T02:46:22;98961.12;;;25.21;42.12
9893;BME280;4985;49.092;8.542;2023-06-10T02:48:50;98957.63;;;25.20;42.11
9893;BME280;4985;49.092;8.542;2023-06-10T02:51:18;98954.91;;;25.20;42.11
9893;BME280;4985;49.092;8.542;2023-06-10T02:53:44;98960.56;;;25.19;42.10
9893;BME280;4985;49.092;8.542;2023-06-10T02:56:11;98956.81;;;25.20;42.11
9893;BME280;4985;49.092;8.542;2023-06-10T02:58:37;98963.28;;;25.19;42.10
9893;BME280;4985;49.092;8.542;2023-06-10T03:01:04;98969.47;;;25.19;42.10
9893;BME280;4985;49.092;8.542;2023-06-10T03:03:31;98957.87;;;25.19;42.09
9893;BME280;4985;49.092;8.542;2023-06-10T03:06:01;98957.87;;;25.19;42.08
9893;BME280;4985;49.092;8.542;2023-06-10T03:08:27;98964.09;;;25.19;42.07
9893;BME280;4985;49.092;8.542;2023-06-10T03:10:55;98957.87;;;25.19;42.06
9893;BME280;4985;49.092;8.542;2023-06-10T03:13:21;98962.47;;;25.18;42.05
9893;BME280;4985;49.092;8.542;2023-06-10T03:15:49;98967.84;;;25.18;42.05
9893;BME280;4985;49.092;8.542;2023-06-10T03:18:15;98967.03;;;25.18;42.04
9893;BME280;4985;49.092;8.542;2023-06-10T03:20:42;98970.56;;;25.18;42.02
9893;BME280;4985;49.092;8.542;2023-06-10T03:23:11;98965.44;;;25.17;42.02
9893;BME280;4985;49.092;8.542;2023-06-10T03:25:38;98969.19;;;25.16;42.00
9893;BME280;4985;49.092;8.542;2023-06-10T03:28:04;98973.50;;;25.17;41.99
9893;BME280;4985;49.092;8.542;2023-06-10T03:30:31;98975.41;;;25.16;41.97
9893;BME280;4985;49.092;8.542;2023-06-10T03:32:57;98978.91;;;25.17;41.97
9893;BME280;4985;49.092;8.542;2023-06-10T03:35:24;98976.47;;;25.15;41.97
9893;BME280;4985;49.092;8.542;2023-06-10T03:37:51;98979.97;;;25.16;41.97
9893;BME280;4985;49.092;8.542;2023-06-10T03:40:19;98972.16;;;25.14;41.96
9893;BME280;4985;49.092;8.542;2023-06-10T03:42:45;98978.34;;;25.15;41.94
9893;BME280;4985;49.092;8.542;2023-06-10T03:45:12;98977.56;;;25.14;41.90
9893;BME280;4985;49.092;8.542;2023-06-10T03:47:38;98979.41;;;25.14;41.88
9893;BME280;4985;49.092;8.542;2023-06-10T03:50:06;98971.31;;;25.14;41.88
9893;BME280;4985;49.092;8.542;2023-06-10T03:52:33;98975.09;;;25.13;41.87
9893;BME280;4985;49.092;8.542;2023-06-10T03:55:00;98980.47;;;25.13;41.86
9893;BME280;4985;49.092;8.542;2023-06-10T03:57:28;98978.88;;;25.12;41.80
9893;BME280;4985;49.092;8.542;2023-06-10T03:59:54;98978.88;;;25.12;41.76
9893;BME280;4985;49.092;8.542;2023-06-10T04:02:21;98978.88;;;25.12;41.71
9893;BME280;4985;49.092;8.542;2023-06-10T04:04:48;98978.06;;;25.11;41.65
9893;BME280;4985;49.092;8.542;2023-06-10T04:07:16;98981.81;;;25.10;41.64
9893;BME280;4985;49.092;8.542;2023-06-10T04:09:44;98983.72;;;25.10;41.64
9893;BME280;4985;49.092;8.542;2023-06-10T04:12:11;98981.81;;;25.10;41.64
9893;BME280;4985;49.092;8.542;2023-06-10T04:14:40;98981.81;;;25.10;41.68
9893;BME280;4985;49.092;8.542;2023-06-10T04:17:08;98981.03;;;25.10;41.70
9893;BME280;4985;49.092;8.542;2023-06-10T04:19:35;98984.78;;;25.09;41.70
9893;BME280;4985;49.092;8.542;2023-06-10T04:22:02;98981.03;;;25.10;41.71
9893;BME280;4985;49.092;8.542;2023-06-10T04:24:30;98988.28;;;25.09;41.68
9893;BME280;4985;49.092;8.542;2023-06-10T04:26:57;98983.19;;;25.08;41.70
9893;BME280;4985;49.092;8.542;2023-06-10T04:29:23;98986.94;;;25.07;41.72
9893;BME280;4985;49.092;8.542;2023-06-10T04:31:51;98989.63;;;25.07;41.72
9893;BME280;4985;49.092;8.542;2023-06-10T04:34:18;98996.91;;;25.06;41.74
9893;BME280;4985;49.092;8.542;2023-06-10T04:36:44;98998.00;;;25.05;41.75
9893;BME280;4985;49.092;8.542;2023-06-10T04:39:11;98995.28;;;25.05;41.72
9893;BME280;4985;49.092;8.542;2023-06-10T04:41:38;98999.06;;;25.04;41.75
9893;BME280;4985;49.092;8.542;2023-06-10T04:44:04;98998.25;;;25.04;41.74
9893;BME280;4985;49.092;8.542;2023-06-10T04:46:31;98998.25;;;25.04;41.75
9893;BME280;4985;49.092;8.542;2023-06-10T04:48:59;98992.88;;;25.04;41.74
9893;BME280;4985;49.092;8.542;2023-06-10T04:51:26;98993.91;;;25.03;41.70
9893;BME280;4985;49.092;8.542;2023-06-10T04:53:52;98997.69;;;25.02;41.71
9893;BME280;4985;49.092;8.542;2023-06-10T04:56:19;99011.16;;;25.02;41.70
9893;BME280;4985;49.092;8.542;2023-06-10T04:58:47;99003.31;;;25.00;41.71
9893;BME280;4985;49.092;8.542;2023-06-10T05:01:13;99006.00;;;25.00;41.72
9893;BME280;4985;49.092;8.542;2023-06-10T05:03:40;99014.06;;;25.00;41.67
9893;BME280;4985;49.092;8.542;2023-06-10T05:06:08;99011.66;;;24.98;41.66
9893;BME280;4985;49.092;8.542;2023-06-10T05:08:35;99011.66;;;24.98;41.66
9893;BME280;4985;49.092;8.542;2023-06-10T05:11:01;99016.22;;;24.98;41.65
9893;BME280;4985;49.092;8.542;2023-06-10T05:13:28;99019.19;;;24.96;41.65
9893;BME280;4985;49.092;8.542;2023-06-10T05:15:55;99025.37;;;24.97;41.67
9893;BME280;4985;49.092;8.542;2023-06-10T05:18:21;99019.19;;;24.96;41.66
9893;BME280;4985;49.092;8.542;2023-06-10T05:20:48;99024.56;;;24.96;41.65
9893;BME280;4985;49.092;8.542;2023-06-10T05:23:16;99027.53;;;24.95;41.65
9893;BME280;4985;49.092;8.542;2023-06-10T05:25:42;99021.34;;;24.94;41.63
9893;BME280;4985;49.092;8.542;2023-06-10T05:28:09;99028.34;;;24.95;41.64
9893;BME280;4985;49.092;8.542;2023-06-10T05:30:36;99029.41;;;24.94;41.64
9893;BME280;4985;49.092;8.542;2023-06-10T05:33:03;99025.13;;;24.93;41.63
9893;BME280;4985;49.092;8.542;2023-06-10T05:35:30;99028.88;;;24.92;41.65
9893;BME280;4985;49.092;8.542;2023-06-10T05:37:57;99028.88;;;24.92;41.65
9893;BME280;4985;49.092;8.542;2023-06-10T05:40:24;99029.69;;;24.93;41.67
9893;BME280;4985;49.092;8.542;2023-06-10T05:42:51;99032.63;;;24.91;41.68
9893;BME280;4985;49.092;8.542;2023-06-10T05:45:18;99040.69;;;24.91;41.70
9893;BME280;4985;49.092;8.542;2023-06-10T05:47:44;99031.00;;;24.90;41.70
9893;BME280;4985;49.092;8.542;2023-06-10T05:50:11;99036.38;;;24.90;41.71
9893;BME280;4985;49.092;8.542;2023-06-10T05:52:37;99041.78;;;24.90;41.71
9893;BME280;4985;49.092;8.542;2023-06-10T05:55:06;99039.34;;;24.89;41.72
9893;BME280;4985;49.092;8.542;2023-06-10T05:57:34;99035.84;;;24.88;41.73
9893;BME280;4985;49.092;8.542;2023-06-10T06:00:00;99045.53;;;24.89;41.73
9893;BME280;4985;49.092;8.542;2023-06-10T06:02:27;99038.53;;;24.88;41.73
9893;BME280;4985;49.092;8.542;2023-06-10T06:04:53;99043.13;;;24.88;41.74
9893;BME280;4985;49.092;8.542;2023-06-10T06:07:20;99043.91;;;24.88;41.76
9893;BME280;4985;49.092;8.542;2023-06-10T06:09:47;99049.31;;;24.88;41.78
9893;BME280;4985;49.092;8.542;2023-06-10T06:12:13;99046.34;;;24.90;41.78
9893;BME280;4985;49.092;8.542;2023-06-10T06:14:41;99038.53;;;24.88;41.77
9893;BME280;4985;49.092;8.542;2023-06-10T06:17:08;99042.03;;;24.89;41.78
9893;BME280;4985;49.092;8.542;2023-06-10T06:19:34;99050.09;;;24.89;41.78
9893;BME280;4985;49.092;8.542;2023-06-10T06:22:01;99050.09;;;24.89;41.80
9893;BME280;4985;49.092;8.542;2023-06-10T06:24:28;99056.56;;;24.88;41.78
9893;BME280;4985;49.092;8.542;2023-06-10T06:26:54;99050.09;;;24.89;41.78
9893;BME280;4985;49.092;8.542;2023-06-10T06:29:21;99058.47;;;24.87;41.79
9893;BME280;4985;49.092;8.542;2023-06-10T06:31:49;99053.88;;;24.88;41.78
9893;BME280;4985;49.092;8.542;2023-06-10T06:34:15;99053.06;;;24.87;41.77
9893;BME280;4985;49.092;8.542;2023-06-10T06:36:42;99055.75;;;24.87;41.77
9893;BME280;4985;49.092;8.542;2023-06-10T06:39:08;99061.16;;;24.87;41.77
9893;BME280;4985;49.092;8.542;2023-06-10T06:41:35;99056.84;;;24.86;41.77
9893;BME280;4985;49.092;8.542;2023-06-10T06:44:01;99061.16;;;24.87;41.76
9893;BME280;4985;49.092;8.542;2023-06-10T06:46:28;99060.34;;;24.87;41.73
9893;BME280;4985;49.092;8.542;2023-06-10T06:48:56;99057.66;;;24.87;41.72
9893;BME280;4985;49.092;8.542;2023-06-10T06:51:22;99057.66;;;24.87;41.73
9893;BME280;4985;49.092;8.542;2023-06-10T06:53:49;99063.03;;;24.87;41.71
9893;BME280;4985;49.092;8.542;2023-06-10T06:56:16;99060.34;;;24.87;41.72
9893;BME280;4985;49.092;8.542;2023-06-10T06:58:43;99063.84;;;24.87;41.72
9893;BME280;4985;49.092;8.542;2023-06-10T07:01:09;99070.31;;;24.86;41.73
9893;BME280;4985;49.092;8.542;2023-06-10T07:03:36;99068.41;;;24.87;41.74
9893;BME280;4985;49.092;8.542;2023-06-10T07:06:04;99059.53;;;24.86;41.76
9893;BME280;4985;49.092;8.542;2023-06-10T07:08:31;99060.59;;;24.85;41.77
9893;BME280;4985;49.092;8.542;2023-06-10T07:10:57;99068.69;;;24.85;41.79
9893;BME280;4985;49.092;8.542;2023-06-10T07:13:24;99066.00;;;24.85;41.81
9893;BME280;4985;49.092;8.542;2023-06-10T07:15:50;99063.28;;;24.85;41.82
9893;BME280;4985;49.092;8.542;2023-06-10T07:18:17;99063.28;;;24.85;41.83
9893;BME280;4985;49.092;8.542;2023-06-10T07:20:43;99067.59;;;24.86;41.84
9893;BME280;4985;49.092;8.542;2023-06-10T07:23:11;99063.28;;;24.85;41.86
9893;BME280;4985;49.092;8.542;2023-06-10T07:25:38;99069.50;;;24.86;41.86
9893;BME280;4985;49.092;8.542;2023-06-10T07:28:04;99069.50;;;24.86;41.88
9893;BME280;4985;49.092;8.542;2023-06-10T07:30:31;99071.37;;;24.85;41.90
9893;BME280;4985;49.092;8.542;2023-06-10T07:32:58;99066.78;;;24.86;41.89
9893;BME280;4985;49.092;8.542;2023-06-10T07:35:24;99064.09;;;24.86;41.88
9893;BME280;4985;49.092;8.542;2023-06-10T07:37:51;99073.00;;;24.86;41.91
9893;BME280;4985;49.092;8.542;2023-06-10T07:40:19;99062.22;;;24.86;41.91
9893;BME280;4985;49.092;8.542;2023-06-10T07:42:45;99061.69;;;24.84;41.93
9893;BME280;4985;49.092;8.542;2023-06-10T07:45:12;99057.91;;;24.85;41.95
9893;BME280;4985;49.092;8.542;2023-06-10T07:47:38;99059.00;;;24.84;41.97
9893;BME280;4985;49.092;8.542;2023-06-10T07:50:05;99059.00;;;24.84;41.99
9893;BME280;4985;49.092;8.542;2023-06-10T07:52:32;99058.19;;;24.84;42.00
9893;BME280;4985;49.092;8.542;2023-06-10T07:54:59;99053.59;;;24.84;42.04
9893;BME280;4985;49.092;8.542;2023-06-10T07:57:26;99054.41;;;24.85;42.03
9893;BME280;4985;49.092;8.542;2023-06-10T07:59:53;99055.22;;;24.85;42.06
9893;BME280;4985;49.092;8.542;2023-06-10T08:02:22;99042.03;;;24.84;42.08
9893;BME280;4985;49.092;8.542;2023-06-10T08:04:49;99052.78;;;24.84;42.09
9893;BME280;4985;49.092;8.542;2023-06-10T08:07:15;99056.28;;;24.84;42.12
9893;BME280;4985;49.092;8.542;2023-06-10T08:09:43;99052.78;;;24.84;42.14
9893;BME280;4985;49.092;8.542;2023-06-10T08:12:10;99060.06;;;24.83;42.16
9893;BME280;4985;49.092;8.542;2023-06-10T08:14:38;99057.38;;;24.83;42.19
9893;BME280;4985;49.092;8.542;2023-06-10T08:17:05;99057.38;;;24.83;42.22
9893;BME280;4985;49.092;8.542;2023-06-10T08:19:31;99053.59;;;24.84;42.24
9893;BME280;4985;49.092;8.542;2023-06-10T08:21:58;99046.59;;;24.83;42.26
9893;BME280;4985;49.092;8.542;2023-06-10T08:24:25;99051.19;;;24.83;42.29
9893;BME280;4985;49.092;8.542;2023-06-10T08:26:51;99057.38;;;24.83;42.32
9893;BME280;4985;49.092;8.542;2023-06-10T08:29:18;99053.59;;;24.84;42.36
9893;BME280;4985;49.092;8.542;2023-06-10T08:31:46;99047.16;;;24.85;42.39
9893;BME280;4985;49.092;8.542;2023-06-10T08:34:12;99054.41;;;24.85;42.40
9893;BME280;4985;49.092;8.542;2023-06-10T08:36:39;99051.72;;;24.85;42.42
9893;BME280;4985;49.092;8.542;2023-06-10T08:39:06;99053.59;;;24.84;42.45
9893;BME280;4985;49.092;8.542;2023-06-10T08:41:35;99044.97;;;24.82;42.49
9893;BME280;4985;49.092;8.542;2023-06-10T08:44:08;99047.16;;;24.85;42.49
9893;BME280;4985;49.092;8.542;2023-06-10T08:46:36;99046.34;;;24.85;42.52
9893;BME280;4985;49.092;8.542;2023-06-10T08:49:06;99043.66;;;24.85;42.55
9893;BME280;4985;49.092;8.542;2023-06-10T08:51:34;99039.88;;;24.86;42.59
9893;BME280;4985;49.092;8.542;2023-06-10T08:54:02;99033.13;;;24.83;42.56
9893;BME280;4985;49.092;8.542;2023-06-10T08:56:31;99051.19;;;24.88;42.54
9893;BME280;4985;49.092;8.542;2023-06-10T08:58:59;99038.25;;;24.90;42.54
9893;BME280;4985;49.092;8.542;2023-06-10T09:01:26;99042.84;;;24.89;42.54
9893;BME280;4985;49.092;8.542;2023-06-10T09:03:54;99052.53;;;24.90;42.54
9893;BME280;4985;49.092;8.542;2023-06-10T09:06:22;99039.06;;;24.90;42.56
9893;BME280;4985;49.092;8.542;2023-06-10T09:08:50;99036.38;;;24.90;42.58
9893;BME280;4985;49.092;8.542;2023-06-10T09:11:17;99041.78;;;24.90;42.57
9893;BME280;4985;49.092;8.542;2023-06-10T09:13:43;99032.87;;;24.90;42.63
9893;BME280;4985;49.092;8.542;2023-06-10T09:16:10;99036.38;;;24.90;42.64
9893;BME280;4985;49.092;8.542;2023-06-10T09:18:38;99025.63;;;24.90;42.66
9893;BME280;4985;49.092;8.542;2023-06-10T09:21:04;99030.75;;;24.92;42.73
9893;BME280;4985;49.092;8.542;2023-06-10T09:23:32;99030.50;;;24.93;42.84
9893;BME280;4985;49.092;8.542;2023-06-10T09:25:59;99025.13;;;24.93;42.86
9893;BME280;4985;49.092;8.542;2023-06-10T09:28:26;99020.53;;;24.94;42.90
9893;BME280;4985;49.092;8.542;2023-06-10T09:31:02;99019.72;;;24.93;42.93
9893;BME280;4985;49.092;8.542;2023-06-10T09:33:29;99026.72;;;24.94;42.92
9893;BME280;4985;49.092;8.542;2023-06-10T09:35:56;99025.66;;;24.95;42.93
9893;BME280;4985;49.092;8.542;2023-06-10T09:38:29;99031.56;;;24.97;42.93
9893;BME280;4985;49.092;8.542;2023-06-10T09:40:58;99022.69;;;24.97;42.87
9893;BME280;4985;49.092;8.542;2023-06-10T09:43:39;99021.06;;;24.96;42.86
9893;BME280;4985;49.092;8.542;2023-06-10T09:46:07;99020.81;;;24.97;42.82
9893;BME280;4985;49.092;8.542;2023-06-10T09:48:41;99027.00;;;24.98;42.79
9893;BME280;4985;49.092;8.542;2023-06-10T09:51:09;99021.34;;;24.94;42.75
9893;BME280;4985;49.092;8.542;2023-06-10T09:53:36;99018.91;;;24.98;42.72
9893;BME280;4985;49.092;8.542;2023-06-10T09:56:04;99017.03;;;24.98;42.67
9893;BME280;4985;49.092;8.542;2023-06-10T09:58:38;99015.72;;;25.01;42.60
9893;BME280;4985;49.092;8.542;2023-06-10T10:01:09;99019.47;;;25.00;42.60
9893;BME280;4985;49.092;8.542;2023-06-10T10:03:46;99016.53;;;25.02;42.61
9893;BME280;4985;49.092;8.542;2023-06-10T10:06:14;99014.88;;;25.01;42.63
9893;BME280;4985;49.092;8.542;2023-06-10T10:08:41;99014.88;;;25.01;42.65
9893;BME280;4985;49.092;8.542;2023-06-10T10:11:10;99012.19;;;25.01;42.69
9893;BME280;4985;49.092;8.542;2023-06-10T10:13:37;99006.28;;;24.98;42.73
9893;BME280;4985;49.092;8.542;2023-06-10T10:16:12;99006.28;;;24.98;42.78
9893;BME280;4985;49.092;8.542;2023-06-10T10:18:43;99007.88;;;25.00;42.81
9893;BME280;4985;49.092;8.542;2023-06-10T10:21:13;99002.50;;;25.00;42.81
9893;BME280;4985;49.092;8.542;2023-06-10T10:23:47;99008.69;;;25.00;42.83
9893;BME280;4985;49.092;8.542;2023-06-10T10:26:17;99010.34;;;25.01;42.83
9893;BME280;4985;49.092;8.542;2023-06-10T10:28:48;99004.13;;;25.01;42.84
9893;BME280;4985;49.092;8.542;2023-06-10T10:31:18;99004.13;;;25.01;42.86
9893;BME280;4985;49.092;8.542;2023-06-10T10:33:54;98993.34;;;25.01;42.86
9893;BME280;4985;49.092;8.542;2023-06-10T10:36:21;98999.56;;;25.01;42.87
9893;BME280;4985;49.092;8.542;2023-06-10T10:38:48;98993.34;;;25.01;42.87
9893;BME280;4985;49.092;8.542;2023-06-10T10:41:18;99000.88;;;24.98;42.92
9893;BME280;4985;49.092;8.542;2023-06-10T10:43:46;99007.66;;;25.01;42.93
9893;BME280;4985;49.092;8.542;2023-06-10T10:46:15;99004.13;;;25.01;42.99
9893;BME280;4985;49.092;8.542;2023-06-10T10:48:42;99004.94;;;25.01;42.96
9893;BME280;4985;49.092;8.542;2023-06-10T10:51:10;99001.19;;;25.02;42.99
9893;BME280;4985;49.092;8.542;2023-06-10T10:53:37;98990.41;;;25.02;43.01
9893;BME280;4985;49.092;8.542;2023-06-10T10:56:06;98996.59;;;25.03;43.00
9893;BME280;4985;49.092;8.542;2023-06-10T10:58:34;98996.59;;;25.03;43.01
9893;BME280;4985;49.092;8.542;2023-06-10T11:01:10;98985.84;;;25.03;43.01
9893;BME280;4985;49.092;8.542;2023-06-10T11:03:42;98990.19;;;25.04;43.03
9893;BME280;4985;49.092;8.542;2023-06-10T11:06:12;99001.75;;;25.04;43.06
9893;BME280;4985;49.092;8.542;2023-06-10T11:08:46;98991.78;;;25.05;43.06
9893;BME280;4985;49.092;8.542;2023-06-10T11:11:18;98991.53;;;25.06;43.04
9893;BME280;4985;49.092;8.542;2023-06-10T11:13:59;98988.56;;;25.08;42.97
9893;BME280;4985;49.092;8.542;2023-06-10T11:16:38;98991.25;;;25.08;42.91
9893;BME280;4985;49.092;8.542;2023-06-10T11:19:05;98973.75;;;25.05;42.89
9893;BME280;4985;49.092;8.542;2023-06-10T11:21:31;98976.16;;;25.07;42.90
9893;BME280;4985;49.092;8.542;2023-06-10T11:23:58;98974.28;;;25.07;42.92
9893;BME280;4985;49.092;8.542;2023-06-10T11:26:31;98972.41;;;25.08;42.89
9893;BME280;4985;49.092;8.542;2023-06-10T11:29:10;98970.25;;;25.10;42.85
9893;BME280;4985;49.092;8.542;2023-06-10T11:31:42;98971.06;;;25.10;42.83
9893;BME280;4985;49.092;8.542;2023-06-10T11:34:09;98969.16;;;25.11;42.83
9893;BME280;4985;49.092;8.542;2023-06-10T11:36:37;98967.28;;;25.11;42.82
9893;BME280;4985;49.092;8.542;2023-06-10T11:39:06;98963.78;;;25.11;42.83
9893;BME280;4985;49.092;8.542;2023-06-10T11:41:33;98962.16;;;25.10;42.80
9893;BME280;4985;49.092;8.542;2023-06-10T11:44:02;98968.09;;;25.12;42.70
9893;BME280;4985;49.092;8.542;2023-06-10T11:46:31;98957.31;;;25.12;42.66
9893;BME280;4985;49.092;8.542;2023-06-10T11:48:59;98953.81;;;25.11;42.61
9893;BME280;4985;49.092;8.542;2023-06-10T11:51:27;98955.72;;;25.11;42.55
9893;BME280;4985;49.092;8.542;2023-06-10T11:53:55;98953.00;;;25.11;42.46
9893;BME280;4985;49.092;8.542;2023-06-10T11:56:22;98962.72;;;25.12;42.46
9893;BME280;4985;49.092;8.542;2023-06-10T11:58:52;98955.72;;;25.11;42.43
9893;BME280;4985;49.092;8.542;2023-06-10T12:01:20;98956.25;;;25.13;42.32
9893;BME280;4985;49.092;8.542;2023-06-10T12:03:56;98957.84;;;25.14;42.20
9893;BME280;4985;49.092;8.542;2023-06-10T12:06:23;98959.50;;;25.15;42.11
9893;BME280;4985;49.092;8.542;2023-06-10T12:08:50;98956.81;;;25.15;42.09
9893;BME280;4985;49.092;8.542;2023-06-10T12:11:16;98960.84;;;25.17;42.07
9893;BME280;4985;49.092;8.542;2023-06-10T12:13:46;98955.47;;;25.17;42.04
9893;BME280;4985;49.092;8.542;2023-06-10T12:16:14;98954.66;;;25.17;41.97
9893;BME280;4985;49.092;8.542;2023-06-10T12:18:43;98950.88;;;25.18;41.97
9893;BME280;4985;49.092;8.542;2023-06-10T12:21:18;98947.66;;;25.16;41.92
9893;BME280;4985;49.092;8.542;2023-06-10T12:24:07;98948.19;;;25.18;41.84
9893;BME280;4985;49.092;8.542;2023-06-10T12:26:37;98948.72;;;25.20;41.76
9893;BME280;4985;49.092;8.542;2023-06-10T12:29:21;98953.56;;;25.23;41.57
9893;BME280;4985;49.092;8.542;2023-06-10T12:31:59;98945.78;;;25.27;41.28
9893;BME280;4985;49.092;8.542;2023-06-10T12:34:30;98938.50;;;25.27;41.29
9893;BME280;4985;49.092;8.542;2023-06-10T12:36:58;98939.31;;;25.28;41.24
9893;BME280;4985;49.092;8.542;2023-06-10T12:39:25;98939.31;;;25.28;41.28
9893;BME280;4985;49.092;8.542;2023-06-10T12:41:51;98937.72;;;25.27;41.22
9893;BME280;4985;49.092;8.542;2023-06-10T12:44:19;98947.41;;;25.28;41.24
9893;BME280;4985;49.092;8.542;2023-06-10T12:46:54;98945.53;;;25.28;41.22
9893;BME280;4985;49.092;8.542;2023-06-10T12:49:21;98947.13;;;25.29;41.16
9893;BME280;4985;49.092;8.542;2023-06-10T12:51:48;98945.25;;;25.30;41.14
9893;BME280;4985;49.092;8.542;2023-06-10T12:54:16;98932.59;;;25.30;41.06
9893;BME280;4985;49.092;8.542;2023-06-10T12:56:42;98939.59;;;25.31;41.03
9893;BME280;4985;49.092;8.542;2023-06-10T12:59:10;98934.19;;;25.31;40.91
9893;BME280;4985;49.092;8.542;2023-06-10T13:01:37;98929.34;;;25.33;40.88
9893;BME280;4985;49.092;8.542;2023-06-10T13:04:04;98923.97;;;25.33;40.80
9893;BME280;4985;49.092;8.542;2023-06-10T13:06:31;98924.78;;;25.34;40.81
9893;BME280;4985;49.092;8.542;2023-06-10T13:09:02;98930.69;;;25.36;40.74
9893;BME280;4985;49.092;8.542;2023-06-10T13:11:30;98923.97;;;25.38;40.74
9893;BME280;4985;49.092;8.542;2023-06-10T13:13:56;98921.00;;;25.40;40.63
9893;BME280;4985;49.092;8.542;2023-06-10T13:16:23;98923.44;;;25.41;40.62
9893;BME280;4985;49.092;8.542;2023-06-10T13:18:52;98915.06;;;25.43;40.67
9893;BME280;4985;49.092;8.542;2023-06-10T13:21:18;98916.69;;;25.44;40.67
9893;BME280;4985;49.092;8.542;2023-06-10T13:23:45;98922.62;;;25.46;40.58
9893;BME280;4985;49.092;8.542;2023-06-10T13:26:13;98930.44;;;25.47;40.56